今日のアクセス数

    岡山グライダークラブ活動状況掲示板あなたは無料カウンター人目の訪問者です

岡山グライダークラブ
岡山市浦安南町639-1 岡南飛行場
 使用機:シャイベ式 SF25C型 ファルケ   JA2330
      ヴァレンティン式17E型 タイフーン  JA2342
 練習日:毎日曜日  クラブルーム:電話 086-265-1810
この掲示板は岡山グライダークラブの活動状況をお知らせする掲示板です。
!!!この掲示板は投稿規制をしています。!!!
クラブ関連各種情報は 岡山グライダークラブクラブルーム      を       .
  ブリーフイング情報は  岡山グライダークラブブリーフィングルーム  をご覧下さい。 .
※写真はクリックすると拡大して見ることが出来ます。
岡南飛行場へのアクセス等は 岡南飛行場管理事務所 をご覧ください。
クラブの ホームページ ができました。

ページ 1 (1〜10)ホームページへ戻る

02月23日
by OGC at 2020/2/24(月) 01:06:49 No.20200224010419 コメント】  削除 引用
1024 x 768 x 69,169バイト
No.1

02月23日
本日の参加者
  会員      14名
  その他      0名


@本日の様子


METAR
RJBK 230000Z 26012G17KT 25KM FEW030CU 09/M02 Q1026 A3031
RJOB 230000Z 28009KT 250V330 9999 FEW030 SCT045 07/M03 Q1025
RJOT 230000Z 29015KT 9999 FEW030 08/M02 Q1025
RJOA 230000Z 30011KT 9999 FEW030 SCT040 06/M05 Q1026
TAF
RJOB 222309Z 2300/2406 29009KT 9999 FEW025 SCT045
RJOT 222305Z 2300/2406 27014KT 9999 FEW030
     BECMG 2310/2312 20006KT
RJOA 222306Z 2300/2406 30010KT 9999 FEW030
     BECMG 2321/2400 19004KT

本日は、西風が少し強く、久々に試運転を西向きで行いました。
積雲がポコポコと出来てたので、みんなサーマル狙っていたようですが、サーマルが小さくすぐ外されていたようです。
また、本日特定技能審査を実施し1名合格しました。

解散    17:30

1番機  10:50離陸 撤収機  17:05着陸 

SF25C JA2330 ファルケ     11Flt.3h25min  
17E   JA2342 タイフーン    06Flt.2h20min  
合計                    17Flt.5h45min
02月16日
by OGC at 2020/2/16(日) 16:32:22 No.20200216163022 コメント】  削除 引用
1024 x 768 x 83,358バイト
No.1

02月16日
本日の参加者
  会員      10名
  その他      0名


@本日の様子


METAR
RJBK 160000Z CALM 2500 BR FEW004ST SCT010CU BKN015CU 10/10 Q1008 A2978
RJOB 160000Z VRB02KT 0200 R07///// -SHRA FG VV002 09/09 Q1008
RJOT 160000Z 04003KT 350V090 0500 R26/0750VP2000U -SHRA FG FEW000 SCT001 BKN002 10/10 Q1007
RJOA 160000Z 10004KT 060V130 2500 BCFG BR FEW000 SCT003 BKN004 09/07 Q1007
TAF
RJOB 160017Z 1600/1706 20005KT 2000 -SHRA BR BCFG FEW000 SCT001 BKN005
     TEMPO 1600/1602 0300 -SHRA FG VV001
     TEMPO 1602/1605 0700 -SHRA FG
     BECMG 1605/1607 27012KT 9999 NSW FEW020 SCT035
     TEMPO 1703/1706 26016G26KT
RJOT 152317Z 1600/1706 24007KT 4000 -SHRA BR FEW003 BKN008 BKN015
     TEMPO 1600/1603 1500 -SHRA BR FEW001 SCT003 BKN005
     BECMG 1603/1605 26020KT 9999 NSW FEW020 BKN035
     TEMPO 1605/1612 25025G35KT
     TEMPO 1700/1706 26022G32KT
RJOA 152309Z 1600/1706 26010KT 2000 -SHRA BR BCFG FEW000 SCT003 BKN008
     TEMPO 1600/1604 0500 -SHRA FG FEW000 SCT001 BKN003
     BECMG 1604/1606 9999 NSW FEW015 BKN025
     TEMPO 1703/1706 27015G25KT

本日は、靄(BR)に覆われ視程が悪く、雨も降ったり止んだりの状態が16時ごろまで続くため、
雨の日、恒例のうどんを食べて解散となりました。

解散    13:00

本日はフライトはありません。

02月09日
by OGC at 2020/2/9(日) 20:53:11 No.20200209205030 コメント】  削除 引用
1024 x 768 x 72,238バイト
No.1

02月09日
本日の参加者
  会員      19名
  その他      0名


@本日の様子


METAR
RJBK 090000Z 29005KT 260V340 30KM FEW025CU 03/M03 Q1024 A3026
RJOB 090000Z 31006KT 270V350 9999 -SHSN FEW020 SCT045 01/M04 Q1023
RJOT 090000Z 25004KT 210V280 9999 FEW025 02/M05 Q1023
RJOA 090000Z 35003KT 270V060 9999 FEW015 SCT025 01/M07 Q1023
TAF
RJOB 082309Z 0900/1006 35010KT 9999 FEW025 SCT045
     BECMG 0909/0911 05004KT
     BECMG 0921/1000 26011KT
RJOT 082311Z 0900/1006 26007KT 9999 FEW030 SCT050
     BECMG 0909/0911 15006KT
     BECMG 0918/0921 27014KT
RJOA 082308Z 0900/1006 34008KT 9999 FEW030 SCT045
     BECMG 0907/0909 05006KT
     BECMG 0918/0921 28005KT
     BECMG 1000/1003 29015KT

本日の天候は弱い横風で絶好の横風着陸訓練日和、朝方、少なかった積雲が至る所ででき、みんなのサーマルへの期待が膨らんでいました。
みんなの期待が多すぎたのか、積雲が出来すぎ日射が少なくなり、みんなの期待も小さくなっていました。
また、本日4名の特定技能審査も行われ、全員、無事合格しました。

解散    17:10

1番機  10:45離陸 撤収機  16:20着陸 

SF25C JA2330 ファルケ     07Flt.3h20min  
17E   JA2342 タイフーン    07Flt.2h50min  
合計                    14Flt.6h10min

02月02日
by OGC at 2020/2/2(日) 21:33:05 No.20200202213044 コメント】  削除 引用
1024 x 768 x 63,552バイト
No.1

02月02日
本日の参加者
  会員      15名
  その他      0名


@本日の様子





METAR
RJBK 020000Z VRB02KT 10KM FEW060SC 03/01 Q1025 A3028
RJOB 020000Z 27004KT 9999 FEW025 06/01 Q1023
RJOT 020000Z 23007KT 9999 FEW025 SCT/// 07/01 Q1024
RJOA 020000Z 31003KT 9999 BKN045 05/M02 Q1024
TAF
RJOB 012306Z 0200/0306 24006KT 9999 FEW025
     BECMG 0212/0215 01004KT
     BECMG 0300/0303 26009KT
RJOT 012308Z 0200/0306 27008KT 9999 FEW025
RJOA 012306Z 0200/0306 20005KT 9999 FEW025 SCT045
     BECMG 0300/0303 27011KT

本日の天候は、風が弱く絶好の着陸練習日和でした。ファルケはいつも通りTGL
や滑空着陸訓練したりしていました。一方、タイフーンの整備も終わり、来週から
本格復帰となります。

解散    18:10

1番機  10:40離陸 撤収機  17:25着陸 

SF25C JA2330 ファルケ     11Flt.3h55min  
17E   JA2342 タイフーン    01Flt.0h10min  
合計                    12Flt.4h05min
01月26日
by OGC at 2020/1/26(日) 21:39:45 No.20200126213715 コメント】  削除 引用
1024 x 768 x 67,604バイト
No.1

01月19日
本日の参加者
  会員      16名
  その他      0名


@本日の様子





METAR
RJBK 260000Z VRB02KT 30KM FEW025CU SCT100AC BKN130AC 06/04 Q1025 A3029
RJOB 260000Z 35005KT 310V030 9999 FEW020 SCT120 BKN140 06/02 Q1024
RJOT 260000Z VRB02KT 9999 FEW001 SCT080 BKN100 05/05 Q1025
RJOA 260000Z 03003KT 360V070 9999 BCFG FEW000 SCT120 BKN140 05/01 Q1024
TAF
RJOB 252306Z 2600/2706 04010KT 9999 FEW035
         TEMPO 2621/2700 4000 -RA BR
         TEMPO 2700/2706 07022G33KT 4000 RA BR FEW003 BKN008 BKN015
RJOT 252307Z 2600/2706 07010KT 9999 FEW030 SCT060
         TEMPO 2621/2706 08020G30KT 3000 RA BR FEW001 SCT005 BKN008
RJOA 252310Z 2600/2706 08007KT 9999 FEW030 SCT045
         BECMG 2618/2621 06018KT
         TEMPO 2621/2706 07020G30KT 3000 RA BR FEW001 SCT003 BKN008


本日は総会があり会計報告等を行いました。天候は風が弱く絶好の着陸練習日和で、ファルケはいつも通りTGL
を行い、タイフーンはNAV訓練に出ていました。

解散    17:40

1番機  11:55離陸 撤収機  17:05着陸 

SF25C JA2330 ファルケ     09Flt.2h50min  
17E   JA2342 タイフーン    03Flt.1h45min  
合計                    12Flt.4h35min
01月19日
by OGC at 2020/1/19(日) 20:44:37 No.20200119203725 コメント】  削除 引用
1024 x 768 x 85,523バイト
No.1

01月19日
本日の参加者
  会員      14名
  その他      0名


@本日の様子





METAR
RJBK 190000Z VRB01KT 30KM FEW030CU BKN/// 03/M00 Q1018 A3008
RJOB 190000Z VRB02KT 9999 FEW020 SCT/// 05/00 Q1017
RJOT 190000Z 13005KT 070V190 9999 FEW025 SCT/// 05/M01 Q1017
RJOA 190000Z VRB01KT CAVOK 05/M03 Q1017
TAF
RJOB 182309Z 1900/2006 23006KT 9999 FEW020 SCT045
RJOT 182307Z 1900/2006 13005KT 9999 FEW030 SCT060
         BECMG 1902/1904 22006KT
RJOA 182305Z 1900/2006 13004KT 9999 FEW020 SCT040
         BECMG 1902/1904 30007K

本日は風が弱く絶好の着陸練習日和。ファルケはいつも通りTGLや滑空訓練
を行い、タイフーンはNAV訓練や岡山空港へ行っていました。

解散    17:40

1番機  10:15離陸 撤収機  17:10着陸 

SF25C JA2330 ファルケ     12Flt.3h50min  
17E   JA2342 タイフーン    05Flt.1h50min  
合計                    17Flt.5h40min
01月12日
by OGC at 2020/1/12(日) 21:04:14 No.20200112210234 コメント】  削除 引用
1477 x 1108 x 133,199バイト <この画像は大きいので別画面で表示します>
No.1

01月12日
本日の参加者
  会員      15名
  その他      0名


@本日の様子





METAR
RJBK 120000Z 05003KT 020V090 10KM FEW010CU SCT050DC BKN070AC 06/04 Q1012 A2990
RJOB 120000Z 36002KT 9999 FEW003 SCT008 BKN070 05/04 Q1011
RJOT 120000Z 21003KT 9999 FEW020 SCT045 BKN090 07/04 Q1012
RJOA 120000Z VRB01KT 9999 FEW025 SCT060 BKN080 07/M00 Q1011
TAF
RJOB 112308Z 1200/1306 27004KT 9999 FEW015 BKN045
RJOT 112309Z 1200/1306 28007KT 9999 FEW020 BKN050
RJOA 112305Z 1200/1306 28005KT 9999 FEW025 BKN040

本日は、霧雨が時々降るあいにくの天気でしたが、いつも通り、訓練フライトを行いました。


解散    17:00

1番機  11:30離陸 撤収機  16:35着陸 

SF25C JA2330 ファルケ     10Flt.3h00min  
17E   JA2342 タイフーン    04Flt.1h15min  
合計                    14Flt.4h15min
01月05日
by OGC at 2020/1/5(日) 19:33:12 No.20200105192826 コメント】  削除 引用
1024 x 768 x 91,538バイト
No.1

01月05日
本日の参加者
  会員      14名
  その他      0名


@本日の様子





METAR
RJOB 050000Z 31004KT 260V360 9999 FEW020 BKN050 05/M02 Q1027
RJOT 050000Z 25005KT 9999 FEW025 SCT060 04/01 Q1028
RJOA 050000Z 25003KT 9999 FEW015 05/M02 Q1027
TAF
RJOB  042305Z 0500/0606 35007KT 9999 FEW025 BKN040
     BECMG 0603/0606 21004KT
RJOT  042310Z 0500/0606 32007KT 9999 FEW025 SCT050
     BECMG 0507/0509 15005KT
RJOA  042308Z 0500/0606 35008KT 9999 FEW030
     BECMG 0507/0509 06006KT

新年あけましておめでとうございます。
今年も安全第一で活動してまいりますのでよろしくお願いします。
本日は晴れで、風は横風ですが、横風着陸の練習日和ってことで、いつも通りTGL訓練を行いました。


解散    17:20

1番機  10:55離陸 撤収機  16:55着陸 

SF25C JA2330 ファルケ     12Flt.2h55min  
17E   JA2342 タイフーン    00Flt.0h00min  
合計                    12Flt.2h55min
12月22日
by OGC at 2019/12/23(月) 00:02:40 No.20191222235953 コメント】  削除 引用
1477 x 1108 x 70,101バイト <この画像は大きいので別画面で表示します>
No.1

12月22日
本日の参加者
  会員      14名
  その他      0名


@本日の様子





METAR
RJBK 220000Z VRB01KT 20KM FEW035CU SCT120AC BKN150AC 06/02 Q1021 A3017
RJOB 220000Z VRB02KT 9999 FEW020 SCT120 BKN130 06/01 Q1020
RJOT 220000Z 10003KT 070V130 9999 FEW020 SCT030 BKN110 07/05 Q1020
RJOA 220000Z 07006KT 030V100 9999 FEW030 BKN070 06/M03 Q1021
TAF
RJOB  212309Z 2200/2306 03004KT 9999 FEW020 SCT045
         BECMG 2215/2218 30005KT
RJOT  212307Z 2200/2306 07007KT 9999 -RA FEW015 SCT030 BKN060
         TEMPO 2209/2212 4000 -RA BR FEW002 BKN008 BKN015
         BECMG 2212/2215 21005KT
RJOA  212305Z 2200/2306 08008KT 9999 FEW025
         BECMG 2210/2212 32004KT

本日は高知沖の前線を伴った低気圧の影響があり、午後から小雨になりました。
ファルケは通常の訓練フライト、格納庫では大掃除を行い、年越し準備も完了しました。
[お知らせ]12月は年会費納入月間です。まだの方は振り込みをお願いします。

解散    17:20

1番機  11:10離陸 撤収機  14:55着陸 

SF25C JA2330 ファルケ     06Flt.2h15min  
17E   JA2342 タイフーン    00Flt.0h00min  
合計                    06Flt.2h15min
12月15日
by OGC at 2019/12/15(日) 22:30:39 No.20191215222619 コメント】  削除 引用
1024 x 768 x 83,955バイト
No.1

12月15日
本日の参加者
  会員      14名
  その他      0名


@本日の様子




METAR
RJBK 150000Z 20003KT 170V240 25KM FEW015CU SCT040CU BKN060SC 07/03 Q1030 A3042
RJOB 150000Z 02008KT 340V050 9999 FEW025 08/M00 Q1029
RJOT 150000Z 14004KT 9999 FEW025 SCT/// 07/04 Q1029
RJOA 150000Z 05009KT 9999 FEW025 06/M03 Q1029
TAF
RJOB  142306Z 1500/1606 04006KT 9999 FEW025
RJOT  142305Z 1500/1606 05007KT 9999 FEW025
RJOA  142306Z 1500/1606 13006KT 9999 FEW030

本日は高気圧に覆われ快晴、先週、集まった会員が多かったこともあり、今週はちょっと少な目です。
ファルケは通常の訓練フライト、一方、タイフーンは剣山の雪化粧を見に行っていました。
[お知らせ]12月は年会費納入月間です。まだの方は振り込みをお願いします。

解散    17:20

1番機  10:40離陸 撤収機  16:45着陸 

SF25C JA2330 ファルケ     10Flt.3h40min  
17E   JA2342 タイフーン    01Flt.1h40min  
合計                    11Flt.5h20min
ホームページへ 全 49 件 [ 1 2 3 4 5 ]

モータースポーツ | 管理者へメール | お知らせ | 一括削除
携帯から使う方法 | ヘルプ | 利用規約 | 違反報告 | 管理パネル



- 無料レンタル掲示板 -